Time;durP1;ratioP1;P1;durP2;ratioP2;P2;SDS_P1;SDS_P2;PMS_P1;PMS_P2;Temp;Humidity;BMP_temperature;BMP_pressure;BME280_temperature;BME280_humidity;BME280_pressure;Samples;Min_cycle;Max_cycle;Signal;HPM_P1;HPM_P2
2023/04/30 00:02:00;;;;;;;7.83;4.50;;;;;;;11.69;nan;98399.50;4997353;28;20206;-73
2023/04/30 00:04:27;;;;;;;6.37;4.60;;;;;;;11.75;nan;98403.94;4995157;28;20217;-73
2023/04/30 00:06:54;;;;;;;6.77;5.10;;;;;;;11.75;nan;98405.81;4995892;28;20234;-75
2023/04/30 00:09:20;;;;;;;5.03;4.53;;;;;;;11.72;nan;98403.56;4995968;28;20217;-75
2023/04/30 00:11:47;;;;;;;6.33;5.37;;;;;;;11.77;nan;98401.88;4995996;28;20212;-75
2023/04/30 00:14:14;;;;;;;5.50;4.70;;;;;;;11.77;nan;98399.22;4996867;28;20612;-75
2023/04/30 00:16:40;;;;;;;4.87;4.37;;;;;;;11.74;nan;98402.31;4996998;28;20227;-75
2023/04/30 00:19:08;;;;;;;6.57;4.90;;;;;;;11.71;nan;98405.41;4997039;28;20217;-75
2023/04/30 00:21:35;;;;;;;5.40;4.70;;;;;;;11.65;nan;98406.28;4995147;28;20213;-75
2023/04/30 00:24:01;;;;;;;5.43;4.93;;;;;;;11.58;nan;98400.13;4994940;28;20215;-75
2023/04/30 00:26:28;;;;;;;5.23;4.73;;;;;;;11.60;nan;98387.47;4996761;28;20238;-75
2023/04/30 00:28:54;;;;;;;5.70;5.20;;;;;;;11.69;nan;98402.16;4996823;28;20218;-76
2023/04/30 00:31:21;;;;;;;6.30;5.13;;;;;;;11.61;nan;98399.75;4996985;28;20234;-76
2023/04/30 00:33:47;;;;;;;5.63;5.10;;;;;;;11.60;nan;98402.63;4995321;28;20231;-76
2023/04/30 00:36:14;;;;;;;6.37;5.77;;;;;;;11.53;nan;98405.31;4996288;28;20235;-76
2023/04/30 00:38:40;;;;;;;6.13;5.53;;;;;;;11.57;nan;98408.38;4996366;28;20212;-76
2023/04/30 00:41:07;;;;;;;6.00;5.40;;;;;;;11.51;nan;98404.72;4996547;28;20207;-76
2023/04/30 00:43:34;;;;;;;6.20;5.60;;;;;;;11.53;nan;98409.84;4995185;28;20236;-76
2023/04/30 00:46:02;;;;;;;6.03;5.43;;;;;;;11.52;nan;98409.00;4996506;28;20230;-76
2023/04/30 00:48:29;;;;;;;6.23;5.63;;;;;;;11.57;nan;98403.84;4996418;28;20665;-76
2023/04/30 00:50:56;;;;;;;6.03;5.53;;;;;;;11.49;nan;98417.41;4996296;28;20592;-76
2023/04/30 00:53:22;;;;;;;6.77;6.07;;;;;;;11.48;nan;98413.13;4995106;28;20205;-76
2023/04/30 00:55:48;;;;;;;6.23;5.43;;;;;;;11.50;nan;98419.06;4995977;28;20576;-76
2023/04/30 00:58:15;;;;;;;5.80;5.20;;;;;;;11.53;nan;98423.94;4996285;28;20216;-76
2023/04/30 01:00:45;;;;;;;5.83;5.33;;;;;;;11.59;nan;98422.28;4994802;28;20208;-75
2023/04/30 01:03:13;;;;;;;7.90;6.40;;;;;;;11.49;nan;98416.63;4976837;28;20192;-75
2023/04/30 01:05:39;;;;;;;6.30;5.70;;;;;;;11.48;nan;98412.31;4977509;28;20235;-75
2023/04/30 01:08:06;;;;;;;7.90;5.90;;;;;;;11.44;nan;98406.59;4976465;28;20232;-75
2023/04/30 01:10:56;;;;;;;6.60;5.57;;;;;;;11.38;nan;98406.63;4975085;28;20675;-75
2023/04/30 01:13:39;;;;;;;6.77;6.07;;;;;;;11.43;nan;98410.28;4994632;28;20214;-75
2023/04/30 01:16:35;;;;;;;6.10;5.60;;;;;;;11.36;nan;98412.22;4997042;28;20251;-75
2023/04/30 01:19:17;;;;;;;6.73;5.80;;;;;;;11.42;nan;98406.00;4977312;28;20201;-75
2023/04/30 01:21:45;;;;;;;6.20;5.60;;;;;;;11.35;nan;98410.56;4978323;28;20665;-75
2023/04/30 01:24:24;;;;;;;7.27;6.53;;;;;;;11.39;nan;98401.09;4995782;28;20689;-75
2023/04/30 01:27:20;;;;;;;8.33;6.20;;;;;;;11.42;nan;98406.00;4995775;28;20314;-75
2023/04/30 01:29:46;;;;;;;9.23;6.43;;;;;;;11.39;nan;98401.09;4994514;28;20693;-75
2023/04/30 01:32:13;;;;;;;7.20;6.50;;;;;;;11.28;nan;98399.16;4995690;28;20231;-75
2023/04/30 01:34:40;;;;;;;7.80;7.00;;;;;;;11.31;nan;98396.06;4995821;28;20207;-75
2023/04/30 01:37:21;;;;;;;7.73;6.93;;;;;;;11.33;nan;98394.00;4995435;28;20224;-75
2023/04/30 01:40:03;;;;;;;7.83;7.13;;;;;;;11.30;nan;98390.94;4993491;28;20204;-75
2023/04/30 01:42:36;;;;;;;7.80;7.10;;;;;;;11.26;nan;98405.72;4992748;28;20750;-75
2023/04/30 01:45:30;;;;;;;10.17;7.73;;;;;;;11.32;nan;98403.81;4995322;28;20191;-76
2023/04/30 01:48:22;;;;;;;7.63;6.93;;;;;;;11.38;nan;98399.47;4995414;28;20190;-76
2023/04/30 01:50:53;;;;;;;9.77;7.60;;;;;;;11.30;nan;98399.72;4977387;28;20266;-76
2023/04/30 01:53:37;;;;;;;8.23;7.43;;;;;;;11.27;nan;98395.66;4995193;28;20211;-76
2023/04/30 01:56:05;;;;;;;9.00;7.50;;;;;;;11.25;nan;98398.78;4994799;28;20743;-76
2023/04/30 01:58:33;;;;;;;8.17;7.37;;;;;;;11.25;nan;98398.78;4992480;28;20214;-76
2023/04/30 02:00:59;;;;;;;8.10;7.30;;;;;;;11.29;nan;98406.09;4995102;28;20203;-76
2023/04/30 02:03:26;;;;;;;7.97;7.27;;;;;;;11.18;nan;98403.31;4995042;28;20217;-76
2023/04/30 02:05:53;;;;;;;8.30;7.50;;;;;;;11.28;nan;98396.47;4994975;28;20264;-76
2023/04/30 02:08:19;;;;;;;10.63;7.97;;;;;;;11.25;nan;98396.91;4993257;28;20224;-76
2023/04/30 02:10:45;;;;;;;9.27;8.03;;;;;;;11.25;nan;98398.78;4993414;28;20236;-76
2023/04/30 02:13:12;;;;;;;9.10;7.73;;;;;;;11.19;nan;98395.09;4994818;28;20249;-76
2023/04/30 02:15:38;;;;;;;9.07;8.17;;;;;;;11.30;nan;98389.09;4994955;28;20231;-76
2023/04/30 02:18:05;;;;;;;9.67;8.50;;;;;;;11.20;nan;98380.78;4993072;28;20213;-76
2023/04/30 02:20:31;;;;;;;9.30;8.30;;;;;;;11.13;nan;98390.66;4994512;28;20206;-76
2023/04/30 02:22:57;;;;;;;9.30;8.40;;;;;;;11.11;nan;98390.03;4994749;28;20205;-76
2023/04/30 02:25:25;;;;;;;9.30;8.40;;;;;;;11.06;nan;98379.22;4992902;28;20746;-76
2023/04/30 02:27:51;;;;;;;9.90;8.90;;;;;;;11.13;nan;98378.16;4994711;28;20257;-76
2023/04/30 02:30:19;;;;;;;9.57;8.67;;;;;;;11.08;nan;98383.28;4994420;28;20227;-76
2023/04/30 02:32:46;;;;;;;9.77;8.70;;;;;;;11.07;nan;98385.38;4994473;28;20216;-76
2023/04/30 02:35:13;;;;;;;9.27;8.37;;;;;;;10.93;nan;98384.63;4993052;28;20234;-76
2023/04/30 02:37:39;;;;;;;10.03;9.07;;;;;;;10.93;nan;98380.13;4994306;28;20207;-76
2023/04/30 02:40:06;;;;;;;9.73;8.67;;;;;;;10.88;nan;98390.59;4994386;28;20217;-76
2023/04/30 02:42:33;;;;;;;9.60;8.70;;;;;;;10.94;nan;98386.25;4994705;28;20225;-76
2023/04/30 02:44:59;;;;;;;8.93;8.13;;;;;;;10.86;nan;98394.50;4992943;28;20203;-77
2023/04/30 02:47:25;;;;;;;9.70;8.70;;;;;;;10.86;nan;98399.81;4994128;28;20207;-76
2023/04/30 02:49:52;;;;;;;9.57;8.57;;;;;;;10.80;nan;98404.13;4994291;28;20231;-76
2023/04/30 02:52:18;;;;;;;9.93;8.93;;;;;;;10.79;nan;98391.84;4994317;28;20218;-76
2023/04/30 02:54:44;;;;;;;10.07;9.07;;;;;;;10.83;nan;98392.25;4992419;28;20204;-76
2023/04/30 02:57:11;;;;;;;10.10;8.60;;;;;;;10.83;nan;98395.72;4994020;28;20237;-76
2023/04/30 02:59:37;;;;;;;9.30;8.40;;;;;;;10.81;nan;98396.94;4993880;28;20213;-76
2023/04/30 03:02:04;;;;;;;11.30;9.13;;;;;;;10.91;nan;98395.47;4994365;28;20250;-76
2023/04/30 03:04:30;;;;;;;9.77;8.80;;;;;;;10.95;nan;98395.88;4992781;28;20213;-76
2023/04/30 03:06:57;;;;;;;11.70;9.50;;;;;;;11.03;nan;98395.59;4993956;28;20227;-76
2023/04/30 03:09:23;;;;;;;9.27;8.40;;;;;;;11.00;nan;98394.19;4993565;28;20668;-76
2023/04/30 03:11:50;;;;;;;10.53;9.50;;;;;;;10.93;nan;98395.25;4993641;28;20694;-76
2023/04/30 03:14:16;;;;;;;10.40;9.30;;;;;;;10.91;nan;98392.00;4991031;28;20214;-76
2023/04/30 03:16:42;;;;;;;11.33;9.50;;;;;;;10.82;nan;98395.94;4993028;28;20235;-76
2023/04/30 03:19:09;;;;;;;10.73;9.60;;;;;;;10.79;nan;98394.53;4993887;28;20211;-76
2023/04/30 03:21:35;;;;;;;10.43;9.33;;;;;;;10.76;nan;98389.63;4993629;28;20246;-76
2023/04/30 03:24:01;;;;;;;11.20;9.17;;;;;;;10.85;nan;98390.19;4991018;28;20209;-76
2023/04/30 03:26:28;;;;;;;10.67;9.53;;;;;;;10.76;nan;98394.94;4994907;28;20297;-76
2023/04/30 03:28:54;;;;;;;11.17;9.40;;;;;;;10.76;nan;98380.81;4995028;28;20207;-76
2023/04/30 03:31:21;;;;;;;10.87;8.90;;;;;;;10.77;nan;98387.78;4994561;28;20219;-76
2023/04/30 03:33:47;;;;;;;9.87;8.97;;;;;;;10.72;nan;98387.56;4995504;28;20208;-76
2023/04/30 03:36:13;;;;;;;10.50;9.50;;;;;;;10.63;nan;98387.00;4997660;28;20239;-76
2023/04/30 03:38:41;;;;;;;10.53;9.43;;;;;;;10.61;nan;98388.25;4997899;28;20218;-76
2023/04/30 03:41:07;;;;;;;11.07;9.90;;;;;;;10.58;nan;98380.69;4997504;28;20249;-76
2023/04/30 03:43:33;;;;;;;10.93;9.57;;;;;;;10.57;nan;98390.53;4995749;28;20559;-76
2023/04/30 03:46:00;;;;;;;10.10;9.20;;;;;;;10.59;nan;98390.31;4996530;28;20227;-76
2023/04/30 03:48:26;;;;;;;10.87;9.50;;;;;;;10.51;nan;98386.03;4997395;28;20222;-76
2023/04/30 03:50:53;;;;;;;13.53;10.33;;;;;;;10.44;nan;98395.06;4997340;28;20219;-76
2023/04/30 03:53:19;;;;;;;10.93;9.93;;;;;;;10.42;nan;98394.47;4995872;28;20214;-76
2023/04/30 03:55:45;;;;;;;11.53;10.40;;;;;;;10.44;nan;98400.38;4997274;28;20227;-76
2023/04/30 03:58:12;;;;;;;10.73;9.53;;;;;;;10.56;nan;98396.88;4997149;28;20215;-76
2023/04/30 04:00:41;;;;;;;10.83;9.83;;;;;;;10.49;nan;98398.72;4997095;28;20306;-76
2023/04/30 04:03:07;;;;;;;11.17;10.07;;;;;;;10.44;nan;98395.88;4979686;28;20211;-76
2023/04/30 04:05:34;;;;;;;13.97;10.70;;;;;;;10.51;nan;98387.88;4995963;28;20231;-76
2023/04/30 04:08:00;;;;;;;10.67;9.67;;;;;;;10.51;nan;98393.19;4994412;28;20216;-76
2023/04/30 04:10:26;;;;;;;11.17;10.07;;;;;;;10.52;nan;98386.84;4996591;28;20651;-76
2023/04/30 04:12:53;;;;;;;11.20;10.10;;;;;;;10.48;nan;98396.28;4997078;28;20208;-76
2023/04/30 04:15:19;;;;;;;12.10;10.50;;;;;;;10.54;nan;98400.78;4995180;28;20240;-76
2023/04/30 04:17:45;;;;;;;11.07;10.03;;;;;;;10.56;nan;98401.34;4996928;28;20203;-76
2023/04/30 04:20:12;;;;;;;10.77;9.70;;;;;;;10.61;nan;98406.84;4996801;28;20207;-76
2023/04/30 04:22:39;;;;;;;11.33;10.00;;;;;;;10.61;nan;98407.69;4996629;28;20647;-76
2023/04/30 04:25:06;;;;;;;10.60;9.50;;;;;;;10.57;nan;98405.66;4992974;28;20210;-76
2023/04/30 04:27:33;;;;;;;10.73;9.73;;;;;;;10.58;nan;98401.94;4996888;28;20218;-76
2023/04/30 04:29:59;;;;;;;11.30;10.20;;;;;;;10.61;nan;98406.84;4996816;28;20211;-76
2023/04/30 04:32:26;;;;;;;10.13;9.23;;;;;;;10.63;nan;98402.13;4996695;28;20233;-76
2023/04/30 04:34:54;;;;;;;11.03;9.93;;;;;;;10.63;nan;98404.78;4995384;28;20298;-76
2023/04/30 04:37:20;;;;;;;11.07;9.93;;;;;;;10.63;nan;98410.09;4996580;28;20243;-76
2023/04/30 04:39:46;;;;;;;10.83;9.67;;;;;;;10.60;nan;98416.66;4996515;28;20261;-76
2023/04/30 04:42:15;;;;;;;11.97;10.77;;;;;;;10.52;nan;98416.91;4996444;28;20210;-76
2023/04/30 04:44:41;;;;;;;11.47;10.27;;;;;;;10.57;nan;98411.78;4994546;28;20640;-76
2023/04/30 04:47:09;;;;;;;11.07;9.83;;;;;;;10.63;nan;98412.75;4996394;28;20281;-76
2023/04/30 04:49:35;;;;;;;10.57;9.40;;;;;;;10.69;nan;98417.25;4996364;28;20682;-76
2023/04/30 04:52:01;;;;;;;10.87;9.77;;;;;;;10.90;nan;98417.78;4997208;28;20249;-76
2023/04/30 04:54:28;;;;;;;11.53;9.77;;;;;;;10.83;nan;98418.84;4996534;28;20333;-76
2023/04/30 04:56:54;;;;;;;10.97;9.43;;;;;;;10.91;nan;98419.41;4996826;28;20234;-76
2023/04/30 04:59:21;;;;;;;10.83;9.73;;;;;;;10.92;nan;98414.91;4996545;28;20207;-76
2023/04/30 05:01:47;;;;;;;12.83;10.40;;;;;;;10.89;nan;98413.50;4997127;28;20208;-76
2023/04/30 05:04:13;;;;;;;11.30;9.83;;;;;;;10.83;nan;98411.69;4996164;28;20200;-76
2023/04/30 05:06:41;;;;;;;10.80;9.77;;;;;;;10.83;nan;98411.69;4996765;28;20262;-76
2023/04/30 05:09:08;;;;;;;11.40;10.37;;;;;;;10.88;nan;98411.03;4996195;28;20212;-76
2023/04/30 05:11:35;;;;;;;11.10;9.90;;;;;;;10.88;nan;98411.88;4995823;28;20231;-76
2023/04/30 05:14:01;;;;;;;10.47;9.43;;;;;;;10.91;nan;98415.94;4994355;28;20684;-75
2023/04/30 05:16:27;;;;;;;11.43;10.27;;;;;;;10.95;nan;98414.50;4995745;28;20224;-75
2023/04/30 05:18:54;;;;;;;10.60;9.40;;;;;;;10.93;nan;98421.06;4995740;28;20203;-75
2023/04/30 05:21:20;;;;;;;10.23;9.23;;;;;;;10.95;nan;98425.13;4995994;28;20204;-75
2023/04/30 05:23:47;;;;;;;10.20;9.20;;;;;;;11.01;nan;98418.97;4995151;28;20207;-75
2023/04/30 05:26:13;;;;;;;10.67;9.67;;;;;;;11.06;nan;98416.47;4994280;28;20223;-75
2023/04/30 05:28:39;;;;;;;10.07;9.07;;;;;;;11.03;nan;98416.88;4995345;28;20213;-75
2023/04/30 05:31:06;;;;;;;9.90;9.00;;;;;;;11.12;nan;98418.28;4995394;28;20703;-78
2023/04/30 05:33:32;;;;;;;10.90;9.80;;;;;;;11.14;nan;98419.69;4994649;28;20695;-76
2023/04/30 05:35:59;;;;;;;11.37;10.23;;;;;;;11.12;nan;98420.94;4994269;28;20234;-76
2023/04/30 05:38:25;;;;;;;11.00;9.90;;;;;;;11.31;nan;98425.34;4995435;28;20214;-76
2023/04/30 05:40:51;;;;;;;10.10;8.97;;;;;;;11.25;nan;98426.19;4995433;28;20217;-76
2023/04/30 05:43:18;;;;;;;10.63;9.60;;;;;;;11.24;nan;98427.22;4994183;28;20209;-76
2023/04/30 05:45:44;;;;;;;10.10;9.20;;;;;;;11.38;nan;98419.94;4995218;28;20230;-76
2023/04/30 05:48:11;;;;;;;10.77;9.67;;;;;;;11.54;nan;98416.78;4994878;28;20260;-76
2023/04/30 05:50:37;;;;;;;10.90;9.80;;;;;;;11.42;nan;98411.34;4995318;28;20209;-76
2023/04/30 05:53:03;;;;;;;9.70;8.80;;;;;;;11.36;nan;98416.69;4994123;28;20205;-76
2023/04/30 05:55:30;;;;;;;10.77;9.77;;;;;;;11.41;nan;98414.22;4994620;28;20312;-76
2023/04/30 05:57:57;;;;;;;9.80;8.90;;;;;;;11.56;nan;98415.53;4994976;28;20236;-76
2023/04/30 06:00:23;;;;;;;10.83;9.17;;;;;;;11.51;nan;98414.53;4995111;28;20623;-76
2023/04/30 06:02:50;;;;;;;9.77;8.77;;;;;;;11.45;nan;98416.25;4993397;28;20578;-76
2023/04/30 06:05:16;;;;;;;11.07;9.93;;;;;;;11.49;nan;98420.06;4995059;28;20505;-76
2023/04/30 06:07:42;;;;;;;9.90;8.87;;;;;;;11.50;nan;98416.41;4994540;28;20669;-76
2023/04/30 06:10:09;;;;;;;11.47;10.17;;;;;;;11.56;nan;98415.53;4994838;28;20194;-76
2023/04/30 06:12:36;;;;;;;9.80;8.90;;;;;;;11.57;nan;98416.34;4993537;28;20225;-76
2023/04/30 06:15:02;;;;;;;10.40;9.40;;;;;;;11.62;nan;98417.34;4994508;28;20221;-76
2023/04/30 06:17:29;;;;;;;10.03;9.13;;;;;;;11.83;nan;98416.97;4994879;28;20349;-76
2023/04/30 06:19:57;;;;;;;9.37;8.47;;;;;;;11.83;nan;98432.13;4994819;28;20207;-76
2023/04/30 06:22:23;;;;;;;10.10;9.20;;;;;;;12.13;nan;98423.28;4993581;28;20202;-76
2023/04/30 06:24:50;;;;;;;9.50;8.50;;;;;;;12.09;nan;98423.94;4994483;28;20218;-76
2023/04/30 06:27:16;;;;;;;9.23;8.30;;;;;;;12.20;nan;98425.88;4994691;28;20230;-76
2023/04/30 06:29:42;;;;;;;9.63;8.63;;;;;;;12.27;nan;98430.13;4994669;28;20217;-76
2023/04/30 06:32:09;;;;;;;8.73;7.83;;;;;;;12.38;nan;98417.91;4991665;28;20219;-76
2023/04/30 06:34:36;;;;;;;9.53;8.67;;;;;;;12.43;nan;98431.38;4994568;28;20269;-76
2023/04/30 06:37:02;;;;;;;8.50;7.70;;;;;;;12.31;nan;98430.47;4993120;28;20223;-76
2023/04/30 06:39:29;;;;;;;8.10;7.30;;;;;;;12.51;nan;98423.91;4992459;28;20214;-77
2023/04/30 06:41:55;;;;;;;8.23;7.40;;;;;;;12.48;nan;98434.22;4994105;28;20289;-76
2023/04/30 06:44:21;;;;;;;8.67;7.80;;;;;;;12.48;nan;98437.66;4994236;28;20273;-76
2023/04/30 06:46:48;;;;;;;8.50;7.70;;;;;;;12.53;nan;98424.47;4992861;28;20227;-76
2023/04/30 06:49:15;;;;;;;8.37;7.57;;;;;;;12.55;nan;98427.75;4994309;28;20207;-73
2023/04/30 06:51:41;;;;;;;8.60;7.77;;;;;;;12.71;nan;98429.03;4995454;28;20234;-76
2023/04/30 06:54:08;;;;;;;7.90;7.20;;;;;;;12.63;nan;98427.47;4995610;28;20214;-77
2023/04/30 06:56:34;;;;;;;7.63;6.90;;;;;;;13.06;nan;98432.72;4994030;28;20228;-76
2023/04/30 06:59:01;;;;;;;9.03;7.53;;;;;;;13.05;nan;98431.91;4992649;28;20212;-77
2023/04/30 07:01:27;;;;;;;7.90;7.10;;;;;;;13.31;nan;98425.38;4994167;28;20213;-76
2023/04/30 07:03:54;;;;;;;8.50;7.70;;;;;;;13.42;nan;98436.09;4984038;28;20213;-76
2023/04/30 07:06:20;;;;;;;8.20;7.40;;;;;;;13.37;nan;98433.31;4993729;28;20239;-75
2023/04/30 07:08:47;;;;;;;8.53;7.67;;;;;;;13.45;nan;98427.66;4993101;28;20222;-76
2023/04/30 07:11:14;;;;;;;8.00;7.30;;;;;;;13.50;nan;98422.44;4993948;28;20701;-76
2023/04/30 07:13:40;;;;;;;7.60;6.90;;;;;;;13.34;nan;98415.06;4991810;28;20573;-76
2023/04/30 07:16:08;;;;;;;7.70;6.90;;;;;;;13.48;nan;98419.16;4993913;28;20231;-76
2023/04/30 07:18:35;;;;;;;7.70;7.00;;;;;;;13.56;nan;98418.03;4993537;28;20738;-76
2023/04/30 07:21:01;;;;;;;7.67;6.97;;;;;;;13.60;nan;98417.34;4994389;28;20206;-76
2023/04/30 07:23:27;;;;;;;7.90;7.20;;;;;;;13.67;nan;98419.91;4992949;28;20213;-76
2023/04/30 07:25:54;;;;;;;7.63;6.83;;;;;;;13.65;nan;98422.00;4993752;28;20226;-77
2023/04/30 07:28:20;;;;;;;7.73;7.03;;;;;;;13.73;nan;98414.47;4993775;28;20215;-76
2023/04/30 07:30:46;;;;;;;8.33;7.37;;;;;;;13.78;nan;98414.59;4993862;28;20207;-76
2023/04/30 07:33:13;;;;;;;6.83;6.23;;;;;;;13.49;nan;98417.31;4992843;28;20227;-76
2023/04/30 07:35:39;;;;;;;6.50;5.90;;;;;;;13.29;nan;98414.13;4993586;28;20235;-76
2023/04/30 07:38:06;;;;;;;7.30;6.60;;;;;;;13.45;nan;98406.28;4993831;28;20203;-76
2023/04/30 07:40:32;;;;;;;7.87;6.70;;;;;;;13.49;nan;98407.44;4993258;28;20757;-76
2023/04/30 07:42:58;;;;;;;7.67;6.87;;;;;;;13.45;nan;98416.97;4992937;28;20230;-76
2023/04/30 07:45:25;;;;;;;6.87;6.27;;;;;;;13.74;nan;98405.41;4993638;28;20234;-77
2023/04/30 07:47:51;;;;;;;6.63;6.07;;;;;;;13.81;nan;98411.47;4993505;28;20573;-76
2023/04/30 07:50:18;;;;;;;7.40;6.70;;;;;;;14.03;nan;98403.69;4993797;28;20203;-76
2023/04/30 07:52:44;;;;;;;6.40;5.80;;;;;;;14.02;nan;98408.19;4992297;28;20702;-76
2023/04/30 07:55:11;;;;;;;6.60;5.83;;;;;;;14.00;nan;98398.78;4993391;28;20302;-76
2023/04/30 07:57:37;;;;;;;6.63;5.83;;;;;;;14.25;nan;98400.19;4993626;28;20214;-76
2023/04/30 08:00:04;;;;;;;6.80;6.10;;;;;;;14.40;nan;98400.56;4993699;28;20207;-76
2023/04/30 08:02:30;;;;;;;6.97;5.63;;;;;;;14.47;nan;98395.88;4993676;28;20239;-76
2023/04/30 08:04:56;;;;;;;6.23;5.63;;;;;;;14.51;nan;98402.41;4992150;28;20207;-76
2023/04/30 08:07:24;;;;;;;6.47;5.87;;;;;;;14.62;nan;98401.56;4993467;28;20210;-76
2023/04/30 08:09:50;;;;;;;5.70;5.17;;;;;;;14.54;nan;98398.44;4990569;28;20234;-76
2023/04/30 08:12:17;;;;;;;9.03;5.97;;;;;;;14.57;nan;98400.66;4993382;28;20691;-76
2023/04/30 08:14:43;;;;;;;6.67;6.07;;;;;;;14.61;nan;98402.59;4993444;28;20207;-76
2023/04/30 08:17:10;;;;;;;6.03;5.53;;;;;;;14.66;nan;98400.03;4993357;28;20238;-76
2023/04/30 08:19:37;;;;;;;5.13;4.63;;;;;;;14.71;nan;98402.84;4994788;28;20238;-76
2023/04/30 08:22:03;;;;;;;5.37;4.87;;;;;;;14.60;nan;98402.88;4996931;28;20200;-76
2023/04/30 08:24:29;;;;;;;5.13;4.70;;;;;;;14.42;nan;98401.13;4992921;28;20204;-76
2023/04/30 08:26:56;;;;;;;4.67;4.23;;;;;;;14.68;nan;98408.66;4996560;28;20231;-76
2023/04/30 08:29:22;;;;;;;4.57;4.07;;;;;;;14.86;nan;98402.31;4997291;28;20211;-76
2023/04/30 08:31:49;;;;;;;4.50;4.10;;;;;;;15.17;nan;98404.53;4997171;28;20589;-77
2023/04/30 08:34:15;;;;;;;5.90;5.23;;;;;;;15.39;nan;98395.63;4998097;28;20211;-77
2023/04/30 08:36:41;;;;;;;4.87;3.90;;;;;;;15.37;nan;98399.59;4996576;28;20725;-76
2023/04/30 08:39:08;;;;;;;4.83;4.33;;;;;;;15.35;nan;98405.19;4996254;28;20211;-76
2023/04/30 08:41:36;;;;;;;4.70;4.30;;;;;;;15.24;nan;98399.84;4996200;28;20294;-77
2023/04/30 08:44:03;;;;;;;4.10;3.70;;;;;;;15.19;nan;98405.91;4994809;28;20207;-77
2023/04/30 08:46:32;;;;;;;4.47;3.60;;;;;;;15.58;nan;98399.69;4995840;28;20227;-76
2023/04/30 08:48:58;;;;;;;4.50;4.03;;;;;;;15.64;nan;98396.03;4996751;28;20309;-76
2023/04/30 08:51:26;;;;;;;3.90;3.50;;;;;;;15.93;nan;98399.47;4998302;28;20638;-77
2023/04/30 08:53:55;;;;;;;3.50;3.20;;;;;;;15.84;nan;98401.72;4997202;28;20621;-76
2023/04/30 08:56:21;;;;;;;3.10;2.77;;;;;;;16.00;nan;98398.25;4996045;28;20289;-76
2023/04/30 08:58:48;;;;;;;2.90;2.70;;;;;;;15.85;nan;98398.00;4994979;28;20212;-76
2023/04/30 09:01:15;;;;;;;4.13;3.20;;;;;;;15.38;nan;98411.94;4995652;28;20290;-76
2023/04/30 09:03:41;;;;;;;3.37;3.03;;;;;;;15.34;nan;98408.91;4996022;28;20213;-76
2023/04/30 09:06:07;;;;;;;3.03;2.83;;;;;;;15.44;nan;98409.09;4994397;28;20223;-76
2023/04/30 09:08:42;;;;;;;3.30;3.00;;;;;;;15.08;nan;98409.47;4995544;28;20219;-76
2023/04/30 09:11:28;;;;;;;3.13;2.83;;;;;;;15.04;nan;98405.63;4995931;28;20198;-76
2023/04/30 09:13:57;;;;;;;4.90;2.70;;;;;;;14.77;nan;98407.22;4995964;28;20222;-76
2023/04/30 09:16:25;;;;;;;3.07;2.77;;;;;;;14.85;nan;98406.88;4995693;28;20223;-76
2023/04/30 09:18:52;;;;;;;2.77;2.57;;;;;;;15.09;nan;98405.72;4993729;28;20550;-76
2023/04/30 09:21:36;;;;;;;2.77;2.57;;;;;;;15.31;nan;98393.28;4993278;28;20210;-76
2023/04/30 09:24:05;;;;;;;2.50;2.30;;;;;;;15.38;nan;98403.88;4994499;28;20282;-76
2023/04/30 09:26:38;;;;;;;2.60;2.40;;;;;;;15.59;nan;98395.97;4993542;28;20227;-76
2023/04/30 09:29:07;;;;;;;2.33;2.10;;;;;;;15.40;nan;98397.25;4992170;28;20213;-76
2023/04/30 09:31:35;;;;;;;2.43;1.90;;;;;;;15.68;nan;98391.00;4992973;28;20210;-76
2023/04/30 09:34:01;;;;;;;2.00;1.80;;;;;;;15.75;nan;98395.13;4993154;28;20234;-76
2023/04/30 09:36:28;;;;;;;2.07;1.93;;;;;;;15.92;nan;98395.97;4995358;28;20231;-76
2023/04/30 09:38:55;;;;;;;1.73;1.63;;;;;;;15.78;nan;98389.31;4994206;28;20207;-76
2023/04/30 09:41:23;;;;;;;2.30;2.10;;;;;;;15.62;nan;98392.81;4994178;28;20211;-76
2023/04/30 09:43:49;;;;;;;2.67;2.10;;;;;;;15.92;nan;98395.16;4982711;28;20242;-76
2023/04/30 09:46:19;;;;;;;2.70;2.50;;;;;;;15.87;nan;98408.50;4989529;28;20223;-76
2023/04/30 09:48:45;;;;;;;2.53;2.07;;;;;;;15.81;nan;98396.03;4995105;28;20657;-77
2023/04/30 09:51:12;;;;;;;2.43;2.27;;;;;;;15.70;nan;98383.53;4995588;28;20206;-76
2023/04/30 09:53:42;;;;;;;2.67;2.33;;;;;;;16.00;nan;98387.50;4994388;28;20235;-76
2023/04/30 09:56:10;;;;;;;2.60;2.30;;;;;;;15.93;nan;98396.78;4991826;28;20227;-76
2023/04/30 09:58:37;;;;;;;2.40;2.10;;;;;;;16.04;nan;98394.00;4994204;28;20285;-76
2023/04/30 10:01:10;;;;;;;3.20;2.90;;;;;;;16.37;nan;98393.94;4992854;28;20736;-76
2023/04/30 10:03:41;;;;;;;2.60;2.30;;;;;;;16.39;nan;98394.53;4995155;28;20196;-76
2023/04/30 10:06:08;;;;;;;2.70;2.50;;;;;;;16.26;nan;98392.19;4993298;28;20227;-76
2023/04/30 10:08:44;;;;;;;4.20;2.60;;;;;;;16.14;nan;98387.97;4994331;28;20211;-76
2023/04/30 10:11:16;;;;;;;2.80;2.60;;;;;;;16.09;nan;98385.22;4992554;28;20257;-76
2023/04/30 10:14:02;;;;;;;2.33;2.23;;;;;;;16.29;nan;98386.31;4994880;28;20223;-76
2023/04/30 10:16:46;;;;;;;2.93;2.07;;;;;;;16.16;nan;98384.00;4975862;28;20310;-76
2023/04/30 10:19:22;;;;;;;2.73;2.10;;;;;;;16.39;nan;98383.81;4976855;28;20218;-76
2023/04/30 10:21:48;;;;;;;1.83;1.67;;;;;;;16.52;nan;98379.97;4993730;28;20213;-75
2023/04/30 10:24:18;;;;;;;2.30;1.90;;;;;;;16.77;nan;98378.41;4994547;28;20239;-76
2023/04/30 10:26:45;;;;;;;2.93;2.10;;;;;;;16.75;nan;98385.09;4986077;28;20714;-76
2023/04/30 10:29:13;;;;;;;2.40;2.20;;;;;;;16.60;nan;98387.59;4994614;28;20211;-76
2023/04/30 10:31:43;;;;;;;2.10;1.97;;;;;;;16.73;nan;98382.66;4995190;28;20211;-76
2023/04/30 10:34:21;;;;;;;2.70;1.83;;;;;;;16.47;nan;98382.59;4993232;28;20233;-76
2023/04/30 10:36:54;;;;;;;2.03;1.87;;;;;;;16.29;nan;98372.09;4993185;28;20231;-76
2023/04/30 10:39:26;;;;;;;2.17;2.00;;;;;;;16.52;nan;98386.13;4994356;28;20191;-76
2023/04/30 10:42:02;;;;;;;3.30;2.60;;;;;;;16.41;nan;98379.00;4988641;28;20678;-76
2023/04/30 10:44:32;;;;;;;2.93;2.67;;;;;;;16.54;nan;98378.66;4991953;28;20569;-76
2023/04/30 10:47:01;;;;;;;2.83;2.60;;;;;;;16.63;nan;98374.47;4986775;28;20282;-76
2023/04/30 10:49:27;;;;;;;2.33;2.13;;;;;;;16.50;nan;98377.53;4994887;28;20249;-76
2023/04/30 10:51:55;;;;;;;2.50;2.30;;;;;;;16.29;nan;98383.63;4994657;28;20215;-76
2023/04/30 10:54:27;;;;;;;2.63;2.43;;;;;;;16.40;nan;98369.34;4994636;28;20238;-76
2023/04/30 10:57:08;;;;;;;3.40;3.10;;;;;;;16.26;nan;98364.53;4992982;28;20227;-76
2023/04/30 10:59:35;;;;;;;2.83;2.63;;;;;;;16.17;nan;98369.53;4993196;28;20206;-76
2023/04/30 11:02:02;;;;;;;3.20;2.67;;;;;;;16.34;nan;98373.00;4992456;28;20211;-76
2023/04/30 11:04:28;;;;;;;2.80;2.53;;;;;;;16.46;nan;98365.66;4993504;28;20551;-76
2023/04/30 11:07:03;;;;;;;2.60;2.40;;;;;;;16.50;nan;98365.97;4993278;28;20231;-76
2023/04/30 11:09:40;;;;;;;2.70;2.50;;;;;;;16.10;nan;98362.72;4974369;28;20215;-76
2023/04/30 11:12:20;;;;;;;3.63;2.43;;;;;;;16.47;nan;98361.13;4974109;28;20207;-76
2023/04/30 11:14:46;;;;;;;2.77;2.47;;;;;;;16.23;nan;98365.03;4993981;28;20209;-76
2023/04/30 11:17:22;;;;;;;3.10;2.30;;;;;;;16.35;nan;98363.88;4991959;28;20210;-76
2023/04/30 11:19:51;;;;;;;3.07;2.70;;;;;;;16.57;nan;98353.19;4993584;28;20195;-76
2023/04/30 11:22:24;;;;;;;3.20;2.87;;;;;;;16.67;nan;98356.81;4992156;28;20219;-76
2023/04/30 11:24:52;;;;;;;2.70;2.50;;;;;;;16.63;nan;98352.19;4990762;28;20212;-76
2023/04/30 11:27:30;;;;;;;2.80;2.60;;;;;;;17.02;nan;98351.84;4991598;28;20218;-76
2023/04/30 11:29:57;;;;;;;3.57;2.70;;;;;;;16.96;nan;98350.16;4985399;28;20206;-76
2023/04/30 11:32:26;;;;;;;2.93;2.70;;;;;;;16.98;nan;98349.91;4992643;28;20214;-76
2023/04/30 11:34:54;;;;;;;3.97;2.93;;;;;;;16.69;nan;98349.31;4974190;28;20204;-76
2023/04/30 11:37:24;;;;;;;2.90;2.70;;;;;;;16.47;nan;98353.06;4974378;28;20204;-76
2023/04/30 11:39:51;;;;;;;2.80;2.60;;;;;;;16.36;nan;98348.56;4993487;28;20206;-76
2023/04/30 11:42:21;;;;;;;4.00;2.67;;;;;;;16.46;nan;98349.56;4993404;28;20207;-76
2023/04/30 11:44:47;;;;;;;3.27;3.07;;;;;;;16.59;nan;98345.69;4991219;28;20219;-76
2023/04/30 11:47:14;;;;;;;3.13;2.93;;;;;;;16.65;nan;98340.13;4993474;28;20230;-76
2023/04/30 11:49:41;;;;;;;2.80;2.60;;;;;;;16.82;nan;98345.44;4993804;28;20207;-76
2023/04/30 11:52:08;;;;;;;4.10;2.80;;;;;;;16.87;nan;98342.81;4995196;28;20218;-76